Time;durP1;ratioP1;P1;durP2;ratioP2;P2;SDS_P1;SDS_P2;PMS_P1;PMS_P2;Temp;Humidity;BMP_temperature;BMP_pressure;BME280_temperature;BME280_humidity;BME280_pressure;Samples;Min_cycle;Max_cycle;Signal;HPM_P1;HPM_P2
2023/09/16 00:02:23;;;;;;;11.50;10.30;;;17.90;99.90;;;;;;5013511;28;20214;-83
2023/09/16 00:04:51;;;;;;;11.10;10.07;;;17.60;99.90;;;;;;5015717;28;20309;-83
2023/09/16 00:07:16;;;;;;;11.65;10.55;;;17.50;99.90;;;;;;5013447;28;20266;-83
2023/09/16 00:09:42;;;;;;;11.30;10.20;;;17.60;99.90;;;;;;5008376;28;20214;-83
2023/09/16 00:12:09;;;;;;;11.23;10.13;;;17.50;99.90;;;;;;5028520;28;20199;-83
2023/09/16 00:14:34;;;;;;;11.77;10.57;;;17.60;99.90;;;;;;5037835;28;20171;-83
2023/09/16 00:17:02;;;;;;;11.17;10.07;;;17.90;99.90;;;;;;5032576;28;20179;-83
2023/09/16 00:19:28;;;;;;;10.65;9.65;;;18.00;99.90;;;;;;5033111;28;20274;-83
2023/09/16 00:21:54;;;;;;;12.17;11.00;;;19.10;99.90;;;;;;5033917;28;20207;-83
2023/09/16 00:24:20;;;;;;;11.77;10.68;;;17.70;99.90;;;;;;5032837;28;20230;-83
2023/09/16 00:26:46;;;;;;;13.00;11.70;;;17.50;99.90;;;;;;5031546;28;20191;-83
2023/09/16 00:29:12;;;;;;;12.00;10.90;;;18.10;99.90;;;;;;5028633;28;20191;-83
2023/09/16 00:31:38;;;;;;;12.23;11.13;;;18.00;99.90;;;;;;5018058;28;20266;-83
2023/09/16 00:34:03;;;;;;;11.70;10.60;;;17.80;99.90;;;;;;5021857;28;20286;-83
2023/09/16 00:36:29;;;;;;;11.50;10.50;;;17.80;99.90;;;;;;5016943;28;20429;-83
2023/09/16 00:38:55;;;;;;;11.43;10.33;;;17.90;99.90;;;;;;5012581;28;20194;-83
2023/09/16 00:41:21;;;;;;;12.60;10.98;;;17.40;99.90;;;;;;5017688;28;20271;-83
2023/09/16 00:43:46;;;;;;;11.63;10.57;;;17.50;99.90;;;;;;5019691;28;20231;-83
2023/09/16 00:46:12;;;;;;;12.37;11.13;;;17.80;99.90;;;;;;5021429;28;20214;-83
2023/09/16 00:48:38;;;;;;;13.10;11.73;;;17.20;99.90;;;;;;5014962;28;20190;-82
2023/09/16 00:51:06;;;;;;;11.90;10.80;;;17.80;99.90;;;;;;5017666;28;20706;-82
2023/09/16 00:53:33;;;;;;;12.55;11.35;;;17.70;99.90;;;;;;5016490;28;20206;-83
2023/09/16 00:56:01;;;;;;;13.13;11.82;;;17.60;99.90;;;;;;5019535;28;20193;-83
2023/09/16 00:58:27;;;;;;;12.13;10.98;;;17.30;99.90;;;;;;5017653;28;20651;-83
2023/09/16 01:00:53;;;;;;;11.93;10.80;;;17.10;99.90;;;;;;5016678;28;20193;-83
2023/09/16 01:03:19;;;;;;;12.40;11.20;;;17.60;99.90;;;;;;5020932;28;20210;-83
2023/09/16 01:05:47;;;;;;;14.48;11.80;;;17.30;99.90;;;;;;5011133;28;20249;-83
2023/09/16 01:08:12;;;;;;;12.70;11.45;;;17.50;99.90;;;;;;5030146;28;20184;-83
2023/09/16 01:10:41;;;;;;;12.40;11.20;;;16.90;99.90;;;;;;5015906;28;20186;-83
2023/09/16 01:13:08;;;;;;;11.25;10.15;;;17.30;99.90;;;;;;5015228;28;20206;-82
2023/09/16 01:15:39;;;;;;;12.85;11.55;;;17.30;99.90;;;;;;5025317;28;22164;-83
2023/09/16 01:18:29;;;;;;;11.95;10.60;;;17.60;99.90;;;;;;5015833;28;20214;-83
2023/09/16 01:20:56;;;;;;;12.93;11.75;;;17.10;99.90;;;;;;5031724;28;20179;-83
2023/09/16 01:23:22;;;;;;;12.60;11.40;;;17.10;99.90;;;;;;5015392;28;20216;-83
2023/09/16 01:25:47;;;;;;;11.00;9.90;;;17.30;99.90;;;;;;5024566;28;20203;-82
2023/09/16 01:28:14;;;;;;;10.87;9.83;;;17.30;99.90;;;;;;5018633;28;20186;-83
2023/09/16 01:30:48;;;;;;;11.02;10.02;;;19.10;99.90;;;;;;5013418;28;20223;-83
2023/09/16 01:33:26;;;;;;;11.30;10.20;;;17.10;99.90;;;;;;5030014;28;20225;-83
2023/09/16 01:35:57;;;;;;;11.73;10.63;;;17.00;99.90;;;;;;5017160;28;20183;-83
2023/09/16 01:38:24;;;;;;;11.43;10.35;;;16.80;99.90;;;;;;5023242;28;20786;-83
2023/09/16 01:40:52;;;;;;;11.70;10.70;;;16.80;99.90;;;;;;5022139;28;20179;-83
2023/09/16 01:43:19;;;;;;;11.90;10.80;;;16.70;99.90;;;;;;5012128;28;20211;-83
2023/09/16 01:45:44;;;;;;;11.65;10.55;;;17.10;99.90;;;;;;5017005;28;20203;-83
2023/09/16 01:48:14;;;;;;;13.30;10.53;;;17.00;99.90;;;;;;5017463;28;20183;-82
2023/09/16 01:50:40;;;;;;;11.20;10.20;;;17.10;99.90;;;;;;5016568;28;20446;-83
2023/09/16 01:53:07;;;;;;;11.40;10.30;;;17.30;99.90;;;;;;5014301;28;20209;-83
2023/09/16 01:55:33;;;;;;;11.40;10.30;;;17.10;99.90;;;;;;5016501;28;20193;-83
2023/09/16 01:57:58;;;;;;;11.15;10.05;;;17.10;99.90;;;;;;5014080;28;20261;-83
2023/09/16 02:00:24;;;;;;;10.30;9.30;;;16.60;99.90;;;;;;5007462;28;20421;-83
2023/09/16 02:02:50;;;;;;;11.60;10.60;;;16.90;99.90;;;;;;5013718;28;20626;-83
2023/09/16 02:05:16;;;;;;;10.55;9.60;;;17.10;99.90;;;;;;5012533;28;20218;-83
2023/09/16 02:07:42;;;;;;;10.90;9.90;;;17.20;99.90;;;;;;5009582;28;20189;-83
2023/09/16 02:10:09;;;;;;;11.03;10.10;;;16.70;99.90;;;;;;5011259;28;20446;-83
2023/09/16 02:12:36;;;;;;;10.70;9.60;;;16.60;99.90;;;;;;5008877;28;20210;-83
2023/09/16 02:15:04;;;;;;;11.82;10.63;;;16.60;99.90;;;;;;5012331;28;20194;-83
2023/09/16 02:17:30;;;;;;;11.75;10.65;;;16.60;99.90;;;;;;5012081;28;20429;-83
2023/09/16 02:19:55;;;;;;;12.00;10.83;;;16.50;99.90;;;;;;5010121;28;20666;-82
2023/09/16 02:22:21;;;;;;;10.80;9.90;;;17.10;99.90;;;;;;5008630;28;20301;-83
2023/09/16 02:24:47;;;;;;;12.27;10.60;;;16.80;99.90;;;;;;5011828;28;20274;-83
2023/09/16 02:27:12;;;;;;;12.40;11.27;;;17.20;99.90;;;;;;5007966;28;20179;-82
2023/09/16 02:29:38;;;;;;;11.73;10.63;;;16.90;99.90;;;;;;5007777;28;20266;-83
2023/09/16 02:32:04;;;;;;;12.90;11.60;;;16.50;99.90;;;;;;5025578;22;20234;-87
2023/09/16 02:34:31;;;;;;;11.90;10.63;;;16.40;99.90;;;;;;5007705;28;20214;-87
2023/09/16 02:36:58;;;;;;;11.07;10.07;;;16.90;99.90;;;;;;5008377;28;20190;-87
2023/09/16 02:39:24;;;;;;;11.48;10.32;;;16.50;99.90;;;;;;5009209;28;20273;-87
2023/09/16 02:41:49;;;;;;;12.43;11.20;;;16.50;99.90;;;;;;5008908;28;20647;-87
2023/09/16 02:44:15;;;;;;;12.30;11.10;;;17.60;99.90;;;;;;5003889;28;20215;-87
2023/09/16 02:46:40;;;;;;;12.13;10.43;;;16.20;99.90;;;;;;5006096;28;20220;-87
2023/09/16 02:49:06;;;;;;;11.70;10.60;;;16.30;99.90;;;;;;5011450;28;20250;-87
2023/09/16 02:51:32;;;;;;;10.80;9.80;;;16.40;99.90;;;;;;5007656;28;20277;-87
2023/09/16 02:53:58;;;;;;;11.00;10.00;;;16.40;99.90;;;;;;5012008;28;20190;-87
2023/09/16 02:56:23;;;;;;;11.90;10.80;;;16.30;99.90;;;;;;5013202;28;20720;-87
2023/09/16 02:58:49;;;;;;;11.60;10.40;;;16.80;99.90;;;;;;5008166;28;20314;-87
2023/09/16 03:01:14;;;;;;;11.50;10.40;;;16.30;99.90;;;;;;5006901;28;20655;-87
2023/09/16 03:03:40;;;;;;;11.07;10.00;;;16.20;99.90;;;;;;5009026;28;20297;-87
2023/09/16 03:06:06;;;;;;;11.77;10.67;;;16.50;99.90;;;;;;5007722;28;20247;-87
2023/09/16 03:08:31;;;;;;;10.50;9.60;;;16.40;99.90;;;;;;5007037;28;20572;-87
2023/09/16 03:11:03;;;;;;;10.70;9.70;;;16.50;99.90;;;;;;5016375;28;20287;-87
2023/09/16 03:13:29;;;;;;;13.25;12.00;;;16.30;99.90;;;;;;5023965;28;20195;-87
2023/09/16 03:16:17;;;;;;;11.53;10.40;;;16.30;99.90;;;;;;5027299;28;20262;-87
2023/09/16 03:18:45;;;;;;;13.07;11.45;;;16.20;99.90;;;;;;5026906;28;20251;-87
2023/09/16 03:21:11;;;;;;;12.15;10.95;;;16.40;99.90;;;;;;5024020;28;20623;-87
2023/09/16 03:23:36;;;;;;;12.17;11.07;;;16.20;99.90;;;;;;5007730;28;20297;-87
2023/09/16 03:26:02;;;;;;;12.77;11.37;;;16.20;99.90;;;;;;5012200;28;20464;-87
2023/09/16 03:28:27;;;;;;;11.47;10.50;;;16.20;99.90;;;;;;5033285;28;20239;-88
2023/09/16 03:30:53;;;;;;;12.23;11.03;;;16.40;99.90;;;;;;5019621;28;20191;-87
2023/09/16 03:33:18;;;;;;;12.80;11.50;;;16.30;99.90;;;;;;5007593;28;20237;-87
2023/09/16 03:35:44;;;;;;;12.60;11.40;;;16.30;99.90;;;;;;5007053;28;20551;-87
2023/09/16 03:38:09;;;;;;;13.93;12.50;;;16.30;99.90;;;;;;5007283;28;20186;-87
2023/09/16 03:40:35;;;;;;;12.03;10.93;;;16.00;99.90;;;;;;5019714;28;20179;-87
2023/09/16 03:43:01;;;;;;;12.43;11.23;;;16.40;99.90;;;;;;5020908;28;20203;-87
2023/09/16 03:45:26;;;;;;;12.20;11.03;;;16.10;99.90;;;;;;5007953;28;20211;-87
2023/09/16 03:47:52;;;;;;;12.13;10.93;;;16.20;99.90;;;;;;5008844;28;20187;-87
2023/09/16 03:50:17;;;;;;;11.03;10.03;;;16.20;99.90;;;;;;5006440;28;20593;-87
2023/09/16 03:52:43;;;;;;;12.40;11.10;;;16.50;99.90;;;;;;5003568;28;20214;-87
2023/09/16 03:55:08;;;;;;;11.80;10.70;;;16.30;99.90;;;;;;5013091;28;20222;-87
2023/09/16 03:57:34;;;;;;;11.93;10.80;;;16.20;99.90;;;;;;5009038;28;20237;-87
2023/09/16 03:59:59;;;;;;;12.00;10.90;;;16.50;99.90;;;;;;5009963;28;20443;-87
2023/09/16 04:02:25;;;;;;;11.40;10.40;;;16.30;99.90;;;;;;5008822;28;20206;-88
2023/09/16 04:04:50;;;;;;;11.20;10.13;;;16.50;99.90;;;;;;5009200;28;20211;-89
2023/09/16 04:07:16;;;;;;;14.17;11.53;;;16.00;99.90;;;;;;5013425;28;20261;-89
2023/09/16 04:09:41;;;;;;;12.30;11.20;;;15.80;99.90;;;;;;5013131;28;20175;-87
2023/09/16 04:12:08;;;;;;;11.67;10.57;;;16.10;99.90;;;;;;5009706;28;20486;-88
2023/09/16 04:14:33;;;;;;;13.13;11.25;;;16.00;99.90;;;;;;5014057;28;20187;-87
2023/09/16 04:16:59;;;;;;;12.07;10.87;;;16.40;99.90;;;;;;5032221;28;20178;-87
2023/09/16 04:19:24;;;;;;;12.07;10.67;;;16.10;99.90;;;;;;5023470;28;20203;-87
2023/09/16 04:21:51;;;;;;;11.73;10.63;;;16.00;99.90;;;;;;5010775;28;20218;-87
2023/09/16 04:24:18;;;;;;;11.98;10.77;;;16.00;99.90;;;;;;5010863;28;20716;-87
2023/09/16 04:26:44;;;;;;;11.27;10.18;;;16.40;99.90;;;;;;5010300;28;20180;-87
2023/09/16 04:29:10;;;;;;;11.83;10.60;;;16.60;99.90;;;;;;5027308;28;20230;-87
2023/09/16 04:31:35;;;;;;;13.07;11.80;;;16.40;99.90;;;;;;5028589;28;20179;-87
2023/09/16 04:34:01;;;;;;;12.93;11.63;;;16.10;99.90;;;;;;5041786;28;20183;-87
2023/09/16 04:36:26;;;;;;;12.13;10.90;;;16.10;99.90;;;;;;5023791;28;20186;-87
2023/09/16 04:38:52;;;;;;;12.20;11.00;;;15.70;99.90;;;;;;5028109;28;20187;-87
2023/09/16 04:41:20;;;;;;;11.93;10.83;;;16.40;99.90;;;;;;5016964;28;20282;-87
2023/09/16 04:43:49;;;;;;;12.70;11.35;;;16.10;99.90;;;;;;5011696;28;20191;-86
2023/09/16 04:46:16;;;;;;;16.17;13.13;;;15.80;99.90;;;;;;5010754;28;20302;-87
2023/09/16 04:48:42;;;;;;;13.45;12.20;;;16.60;99.90;;;;;;5011143;28;20266;-87
2023/09/16 04:51:09;;;;;;;13.43;12.03;;;16.10;99.90;;;;;;4993906;28;20873;-87
2023/09/16 04:53:34;;;;;;;12.43;11.32;;;16.50;99.90;;;;;;5011137;28;20461;-87
2023/09/16 04:56:06;;;;;;;13.90;12.23;;;16.30;99.90;;;;;;5011761;28;20592;-87
2023/09/16 04:58:32;;;;;;;12.55;11.35;;;15.90;99.90;;;;;;5005101;28;20230;-87
2023/09/16 05:01:01;;;;;;;13.30;11.77;;;16.50;99.90;;;;;;5006588;28;20732;-88
2023/09/16 05:03:26;;;;;;;12.30;11.20;;;16.00;99.90;;;;;;5003750;28;20468;-88
2023/09/16 05:05:53;;;;;;;14.83;12.03;;;16.10;99.90;;;;;;5009429;28;20285;-89
2023/09/16 05:08:19;;;;;;;12.90;11.70;;;18.30;99.90;;;;;;5013649;28;20191;-89
2023/09/16 05:10:45;;;;;;;13.00;11.80;;;16.90;99.90;;;;;;5046908;28;20179;-88
2023/09/16 05:13:10;;;;;;;12.00;10.90;;;16.20;99.90;;;;;;5022264;28;20256;-89
2023/09/16 05:15:36;;;;;;;12.77;11.57;;;15.80;99.90;;;;;;5011553;28;20191;-89
2023/09/16 05:18:01;;;;;;;13.53;12.23;;;15.90;99.90;;;;;;5009351;28;20191;-89
2023/09/16 05:20:27;;;;;;;12.23;11.03;;;16.00;99.90;;;;;;5012322;28;20202;-89
2023/09/16 05:22:52;;;;;;;13.53;12.33;;;16.00;99.90;;;;;;5009327;28;20234;-89
2023/09/16 05:25:18;;;;;;;12.83;11.67;;;16.20;99.90;;;;;;5010337;28;20202;-89
2023/09/16 05:27:44;;;;;;;12.30;11.10;;;16.10;99.90;;;;;;5009284;28;20187;-89
2023/09/16 05:30:10;;;;;;;13.00;11.70;;;16.00;99.90;;;;;;5004855;28;20190;-88
2023/09/16 05:32:35;;;;;;;12.60;11.45;;;16.10;99.90;;;;;;5008404;28;20541;-89
2023/09/16 05:35:01;;;;;;;13.07;11.93;;;16.10;99.90;;;;;;5008532;28;20617;-89
2023/09/16 05:37:27;;;;;;;12.53;11.23;;;16.20;99.90;;;;;;5007073;28;20904;-87
2023/09/16 05:39:52;;;;;;;14.50;13.00;;;16.10;99.90;;;;;;5008535;28;20187;-88
2023/09/16 05:42:18;;;;;;;16.53;14.87;;;16.20;99.90;;;;;;5009704;28;20461;-88
2023/09/16 05:44:43;;;;;;;14.50;13.30;;;16.10;99.90;;;;;;5011604;28;20194;-89
2023/09/16 05:47:09;;;;;;;14.97;12.93;;;15.90;99.90;;;;;;5007447;28;20202;-89
2023/09/16 05:49:35;;;;;;;16.07;13.90;;;16.50;99.90;;;;;;5007380;28;20270;-88
2023/09/16 05:52:00;;;;;;;16.63;14.97;;;16.40;99.90;;;;;;5006766;28;20202;-88
2023/09/16 05:54:26;;;;;;;15.87;14.27;;;16.20;99.90;;;;;;5009259;28;20238;-89
2023/09/16 05:56:52;;;;;;;16.50;14.30;;;16.40;99.90;;;;;;5029862;28;20377;-90
2023/09/16 05:59:19;;;;;;;14.20;12.90;;;16.80;99.90;;;;;;5030923;28;20167;-89
2023/09/16 06:01:44;;;;;;;15.65;14.15;;;16.70;99.90;;;;;;5031681;28;20465;-89
2023/09/16 06:04:10;;;;;;;13.63;12.27;;;17.00;99.90;;;;;;5021737;28;20266;-88
2023/09/16 06:06:36;;;;;;;14.63;13.23;;;16.90;99.90;;;;;;5014627;28;20191;-88
2023/09/16 06:09:03;;;;;;;15.65;14.15;;;16.40;99.90;;;;;;5008495;28;20202;-88
2023/09/16 06:11:29;;;;;;;15.38;13.88;;;17.30;99.90;;;;;;5008480;28;20281;-88
2023/09/16 06:13:55;;;;;;;16.60;14.90;;;16.80;99.90;;;;;;5014774;28;20538;-88
2023/09/16 06:16:21;;;;;;;14.75;13.35;;;17.00;99.90;;;;;;5030722;28;20731;-88
2023/09/16 06:18:47;;;;;;;16.85;13.45;;;17.40;99.90;;;;;;5032992;28;20206;-89
2023/09/16 06:21:15;;;;;;;15.07;13.67;;;17.40;99.90;;;;;;5021402;28;20183;-89
2023/09/16 06:23:41;;;;;;;15.13;13.60;;;17.60;99.90;;;;;;5010072;28;20488;-89
2023/09/16 06:26:06;;;;;;;15.10;13.60;;;17.60;99.90;;;;;;5009666;28;20213;-89
2023/09/16 06:28:33;;;;;;;14.40;13.00;;;17.60;99.90;;;;;;5005739;28;20441;-89
2023/09/16 06:30:58;;;;;;;15.45;13.95;;;17.40;99.90;;;;;;5012330;28;20218;-89
2023/09/16 06:33:24;;;;;;;14.70;13.40;;;17.40;99.90;;;;;;5012960;28;20273;-89
2023/09/16 06:35:50;;;;;;;14.40;13.00;;;17.90;99.90;;;;;;5010300;28;20241;-89
2023/09/16 06:38:15;;;;;;;15.63;14.13;;;17.60;99.90;;;;;;5011653;28;20202;-88
2023/09/16 06:40:41;;;;;;;14.17;12.97;;;18.30;99.90;;;;;;5009772;28;20195;-89
2023/09/16 06:43:06;;;;;;;14.53;13.03;;;18.30;99.90;;;;;;5010539;28;20210;-89
2023/09/16 06:45:32;;;;;;;15.70;14.10;;;18.40;99.90;;;;;;5011131;28;20755;-89
2023/09/16 06:47:58;;;;;;;15.40;13.33;;;18.10;99.90;;;;;;5007296;28;20183;-89
2023/09/16 06:50:23;;;;;;;15.50;13.90;;;18.70;99.90;;;;;;5006232;28;20199;-88
2023/09/16 06:52:49;;;;;;;14.37;12.93;;;18.90;99.90;;;;;;5008757;28;20195;-89
2023/09/16 06:55:15;;;;;;;14.70;13.30;;;19.10;99.90;;;;;;5011805;28;20237;-89
2023/09/16 06:57:40;;;;;;;14.33;12.93;;;19.10;99.90;;;;;;5008569;28;20454;-89
2023/09/16 07:00:06;;;;;;;16.63;13.50;;;19.60;99.90;;;;;;5010427;28;20191;-89
2023/09/16 07:02:32;;;;;;;13.77;12.40;;;19.90;99.90;;;;;;5010278;28;20234;-89
2023/09/16 07:04:57;;;;;;;12.60;11.50;;;21.20;99.90;;;;;;5012774;28;20238;-89
2023/09/16 07:07:24;;;;;;;12.77;11.57;;;22.50;99.90;;;;;;5004353;28;20559;-89
2023/09/16 07:09:56;;;;;;;12.43;11.23;;;25.00;99.90;;;;;;5011732;28;20654;-89
2023/09/16 07:12:22;;;;;;;11.97;10.87;;;27.90;96.40;;;;;;5011738;28;20904;-89
2023/09/16 07:14:48;;;;;;;12.60;11.50;;;28.90;92.70;;;;;;5010577;28;20454;-89
2023/09/16 07:17:14;;;;;;;11.43;10.53;;;32.00;90.10;;;;;;5009147;28;20608;-88
2023/09/16 07:19:40;;;;;;;12.27;11.17;;;31.60;83.80;;;;;;5007531;28;20221;-88
2023/09/16 07:22:05;;;;;;;11.40;10.50;;;33.60;76.20;;;;;;5012058;28;20210;-88
2023/09/16 07:24:31;;;;;;;12.00;11.10;;;34.20;71.30;;;;;;5014680;28;20207;-88
2023/09/16 07:26:56;;;;;;;9.30;8.60;;;35.80;65.30;;;;;;5010451;28;20187;-89
2023/09/16 07:29:22;;;;;;;9.07;8.37;;;36.80;61.50;;;;;;5011429;28;20187;-88
2023/09/16 07:31:48;;;;;;;8.27;7.67;;;37.80;57.20;;;;;;5013375;28;20218;-88
2023/09/16 07:34:15;;;;;;;11.40;10.40;;;38.40;55.20;;;;;;5015148;28;20441;-88
2023/09/16 07:36:41;;;;;;;9.67;8.97;;;38.70;53.00;;;;;;5011303;28;20186;-88
2023/09/16 07:39:07;;;;;;;10.20;9.50;;;39.00;52.20;;;;;;5013465;28;20471;-88
2023/09/16 07:41:33;;;;;;;10.30;9.60;;;39.00;51.10;;;;;;5010794;28;20453;-88
2023/09/16 07:43:58;;;;;;;10.63;9.80;;;39.30;50.00;;;;;;5013593;28;20191;-89
2023/09/16 07:46:24;;;;;;;10.73;9.93;;;39.30;49.40;;;;;;5012637;28;20698;-89
2023/09/16 07:48:49;;;;;;;11.60;10.80;;;39.60;48.60;;;;;;5014597;28;20384;-89
2023/09/16 07:51:16;;;;;;;10.57;9.87;;;38.80;49.10;;;;;;5014064;28;20183;-88
2023/09/16 07:53:41;;;;;;;11.87;8.60;;;38.90;49.10;;;;;;5013607;28;20637;-89
2023/09/16 07:56:08;;;;;;;10.30;9.60;;;39.10;48.50;;;;;;5012460;28;20493;-89
2023/09/16 07:58:33;;;;;;;9.63;8.67;;;39.40;47.80;;;;;;5013405;28;20635;-90
2023/09/16 08:00:59;;;;;;;9.57;8.87;;;39.80;47.50;;;;;;5015312;28;20437;-90
2023/09/16 08:03:24;;;;;;;10.10;9.40;;;40.70;46.20;;;;;;5008689;28;20227;-90
2023/09/16 08:05:50;;;;;;;8.67;8.07;;;41.60;44.50;;;;;;5016255;28;20206;-90
2023/09/16 08:08:16;;;;;;;12.40;11.50;;;41.70;43.80;;;;;;5013875;28;20284;-90
2023/09/16 08:10:51;;;;;;;10.27;9.43;;;41.00;44.00;;;;;;5014914;28;20206;-90
2023/09/16 08:13:18;;;;;;;10.20;9.50;;;40.70;44.10;;;;;;5009417;28;20822;-90
2023/09/16 08:15:43;;;;;;;9.53;8.83;;;41.50;43.80;;;;;;5012337;28;20452;-90
2023/09/16 08:18:09;;;;;;;10.10;9.40;;;42.30;42.50;;;;;;5013426;28;20446;-90
2023/09/16 08:20:34;;;;;;;11.57;10.60;;;41.60;42.70;;;;;;5010918;28;20590;-90
2023/09/16 08:23:00;;;;;;;10.33;9.63;;;42.30;41.70;;;;;;5011746;28;20284;-90
2023/09/16 08:25:25;;;;;;;10.47;9.60;;;41.90;41.60;;;;;;5012709;28;20202;-90
2023/09/16 08:27:52;;;;;;;9.27;8.57;;;41.50;41.60;;;;;;5014060;28;20301;-90
2023/09/16 08:30:18;;;;;;;10.00;9.40;;;40.70;42.90;;;;;;5012782;28;20276;-90
2023/09/16 08:32:44;;;;;;;11.70;10.90;;;39.30;44.10;;;;;;5010955;28;20465;-90
2023/09/16 08:35:09;;;;;;;9.57;8.70;;;37.10;46.70;;;;;;5026108;28;20438;-89
2023/09/16 08:37:35;;;;;;;10.67;9.97;;;35.70;51.00;;;;;;5024880;28;20196;-90
2023/09/16 08:40:01;;;;;;;11.57;10.33;;;34.00;53.20;;;;;;4997610;28;20247;-90
2023/09/16 08:42:54;;;;;;;9.80;9.10;;;32.50;56.30;;;;;;5013787;28;20463;-90
2023/09/16 08:45:22;;;;;;;10.50;9.80;;;30.60;60.50;;;;;;5030318;28;20483;-90
2023/09/16 08:47:55;;;;;;;9.93;9.23;;;29.10;66.90;;;;;;4997862;28;20460;-89
2023/09/16 08:50:22;;;;;;;10.60;9.50;;;28.30;75.00;;;;;;5012405;28;20449;-89
2023/09/16 08:52:54;;;;;;;11.23;10.13;;;28.80;80.40;;;;;;5010094;28;20553;-90
2023/09/16 08:55:20;;;;;;;10.83;9.73;;;27.00;82.00;;;;;;5025705;28;20444;-89
2023/09/16 08:57:53;;;;;;;10.30;9.47;;;27.10;85.40;;;;;;5039763;28;20462;-89
2023/09/16 09:00:19;;;;;;;9.73;8.90;;;26.90;87.50;;;;;;5040658;28;20446;-89
2023/09/16 09:02:45;;;;;;;10.00;8.97;;;26.50;88.60;;;;;;5019096;28;20562;-90
2023/09/16 09:05:11;;;;;;;10.63;7.97;;;26.80;90.40;;;;;;5016440;28;20759;-90
2023/09/16 09:07:40;;;;;;;9.53;8.63;;;26.30;91.50;;;;;;5022330;28;20469;-90
2023/09/16 09:10:06;;;;;;;8.57;7.80;;;26.00;92.70;;;;;;5024092;28;20182;-90
2023/09/16 09:12:37;;;;;;;9.00;8.20;;;25.50;93.40;;;;;;5016222;28;20483;-89
2023/09/16 09:15:07;;;;;;;9.53;8.63;;;25.80;94.20;;;;;;5009485;28;20447;-90
2023/09/16 09:17:42;;;;;;;9.27;8.47;;;25.40;94.00;;;;;;5014500;28;20451;-90
2023/09/16 09:20:13;;;;;;;8.70;8.00;;;25.60;94.20;;;;;;5022744;28;20461;-89
2023/09/16 09:22:40;;;;;;;8.33;7.63;;;25.60;94.40;;;;;;5036492;28;20453;-89
2023/09/16 09:25:06;;;;;;;10.30;8.37;;;26.10;93.90;;;;;;5013785;28;20885;-90
2023/09/16 09:27:32;;;;;;;9.50;8.70;;;26.00;93.30;;;;;;5004606;28;20511;-89
2023/09/16 09:29:57;;;;;;;8.20;7.50;;;25.80;93.60;;;;;;5027890;28;20477;-89
2023/09/16 09:32:29;;;;;;;8.40;7.67;;;26.00;93.50;;;;;;5010825;28;20654;-89
2023/09/16 09:34:54;;;;;;;8.43;7.47;;;26.20;93.50;;;;;;5008512;28;20599;-89
2023/09/16 09:37:20;;;;;;;10.53;9.60;;;26.40;93.70;;;;;;5008991;28;20452;-89
2023/09/16 09:39:46;;;;;;;8.43;7.63;;;26.20;94.10;;;;;;5012871;28;20194;-89
2023/09/16 09:42:21;;;;;;;8.10;7.30;;;26.20;93.70;;;;;;5011038;28;20719;-89
2023/09/16 09:44:47;;;;;;;8.30;7.60;;;26.60;92.70;;;;;;5009714;28;20546;-89
2023/09/16 09:47:15;;;;;;;8.40;7.60;;;27.90;92.10;;;;;;5015556;28;20473;-89
2023/09/16 09:49:41;;;;;;;8.00;7.40;;;27.70;91.70;;;;;;5019997;28;20191;-89
2023/09/16 09:52:09;;;;;;;7.90;7.20;;;27.50;91.40;;;;;;5028056;28;20446;-89
2023/09/16 09:54:34;;;;;;;7.80;7.30;;;27.10;91.50;;;;;;5031827;28;20450;-90
2023/09/16 09:57:05;;;;;;;8.10;7.40;;;27.40;91.50;;;;;;5029783;28;20420;-90
2023/09/16 09:59:30;;;;;;;7.50;7.00;;;27.20;91.10;;;;;;4996241;28;20572;-90
2023/09/16 10:01:56;;;;;;;7.10;6.60;;;27.00;90.80;;;;;;5012319;28;20513;-87
2023/09/16 10:04:23;;;;;;;8.17;7.57;;;27.00;90.90;;;;;;5012328;28;20196;-88
2023/09/16 10:06:50;;;;;;;8.27;7.57;;;27.10;91.00;;;;;;5013141;28;20215;-88
2023/09/16 10:09:16;;;;;;;8.50;7.80;;;27.00;90.90;;;;;;5006343;28;20860;-88
2023/09/16 10:11:41;;;;;;;7.07;6.47;;;27.20;90.70;;;;;;5010297;28;20490;-90
2023/09/16 10:14:07;;;;;;;6.90;6.30;;;27.40;90.50;;;;;;5011538;28;20186;-91
2023/09/16 10:16:33;;;;;;;7.00;6.50;;;27.70;90.00;;;;;;5008569;28;20193;-90
2023/09/16 10:18:59;;;;;;;6.80;6.20;;;27.80;90.00;;;;;;5018774;28;20455;-91
2023/09/16 10:21:25;;;;;;;6.30;5.90;;;27.50;90.00;;;;;;5012983;28;21207;-91
2023/09/16 10:23:51;;;;;;;5.90;5.50;;;27.30;89.10;;;;;;5013754;28;20543;-91
2023/09/16 10:26:16;;;;;;;6.43;5.93;;;27.00;88.80;;;;;;5021796;28;20218;-91
2023/09/16 10:28:46;;;;;;;6.30;5.80;;;27.20;90.10;;;;;;5023876;28;20186;-90
2023/09/16 10:31:12;;;;;;;5.93;5.53;;;27.00;89.50;;;;;;5007707;28;20703;-91
2023/09/16 10:33:40;;;;;;;7.50;6.80;;;27.40;89.60;;;;;;5013085;28;20497;-91
2023/09/16 10:36:07;;;;;;;5.73;5.33;;;27.20;89.10;;;;;;5009345;28;20447;-91
2023/09/16 10:38:34;;;;;;;5.80;5.40;;;27.00;88.00;;;;;;5026885;28;20532;-91
2023/09/16 10:41:00;;;;;;;5.50;5.10;;;27.50;88.10;;;;;;5013493;28;20492;-91
2023/09/16 10:43:25;;;;;;;6.07;5.47;;;27.30;88.90;;;;;;5006813;28;20471;-91
2023/09/16 10:45:51;;;;;;;6.40;5.90;;;27.00;88.10;;;;;;5020724;28;20268;-91
2023/09/16 10:48:17;;;;;;;7.03;6.43;;;27.10;88.30;;;;;;5019383;28;20227;-90
2023/09/16 10:50:44;;;;;;;6.00;5.40;;;27.30;88.70;;;;;;5009775;28;20452;-91
2023/09/16 10:53:18;;;;;;;8.13;6.40;;;27.30;86.70;;;;;;5008223;28;20237;-91
2023/09/16 10:55:47;;;;;;;4.73;4.40;;;27.50;86.20;;;;;;5007920;28;20446;-91
2023/09/16 10:58:41;;;;;;;4.90;4.50;;;27.50;85.30;;;;;;5016833;28;20569;-91
2023/09/16 11:01:08;;;;;;;5.10;4.70;;;27.60;82.40;;;;;;5008404;28;21003;-91
2023/09/16 11:03:40;;;;;;;4.73;4.33;;;27.50;82.40;;;;;;5009532;28;20471;-90
2023/09/16 11:06:06;;;;;;;5.13;4.80;;;27.60;81.80;;;;;;5011976;28;20470;-91
2023/09/16 11:08:31;;;;;;;5.77;5.27;;;27.70;81.90;;;;;;5011514;28;20454;-91
2023/09/16 11:10:58;;;;;;;5.37;4.97;;;28.50;82.40;;;;;;5007394;28;20450;-91
2023/09/16 11:13:26;;;;;;;5.60;5.20;;;27.90;80.50;;;;;;5009459;28;20207;-91
2023/09/16 11:15:51;;;;;;;5.13;4.73;;;28.00;80.20;;;;;;5008682;28;20868;-91
2023/09/16 11:18:18;;;;;;;5.27;4.87;;;28.00;79.50;;;;;;5013277;28;20448;-91
2023/09/16 11:20:44;;;;;;;7.67;5.57;;;28.90;80.90;;;;;;5024700;28;20180;-91
2023/09/16 11:23:11;;;;;;;5.83;5.43;;;28.00;79.60;;;;;;5008495;28;20471;-91
2023/09/16 11:25:39;;;;;;;4.30;4.00;;;28.00;79.60;;;;;;5014437;28;21019;-91
2023/09/16 11:28:18;;;;;;;4.23;3.93;;;28.10;77.30;;;;;;5028162;28;20474;-91
2023/09/16 11:30:52;;;;;;;4.07;3.77;;;28.20;77.70;;;;;;5012385;28;20477;-91
2023/09/16 11:33:32;;;;;;;3.90;3.60;;;29.00;76.30;;;;;;5012126;28;20523;-91
2023/09/16 11:36:18;;;;;;;4.63;3.90;;;28.40;75.70;;;;;;5011383;28;20453;-91
2023/09/16 11:39:15;;;;;;;4.70;4.23;;;28.30;74.80;;;;;;5009239;28;20445;-91
2023/09/16 11:41:41;;;;;;;4.50;4.20;;;28.50;75.50;;;;;;5034249;28;20489;-91
2023/09/16 11:44:07;;;;;;;5.00;4.60;;;28.40;75.40;;;;;;5031789;28;20444;-91
2023/09/16 11:46:34;;;;;;;5.20;4.80;;;28.60;75.80;;;;;;5026101;28;20501;-91
2023/09/16 11:49:05;;;;;;;4.70;4.30;;;28.60;75.80;;;;;;5016049;28;20446;-91
2023/09/16 11:51:33;;;;;;;4.20;3.90;;;28.70;74.60;;;;;;5012721;28;20449;-91
2023/09/16 11:53:59;;;;;;;3.60;3.40;;;29.00;73.70;;;;;;5009592;28;21023;-91
2023/09/16 11:56:27;;;;;;;3.70;3.33;;;30.00;74.90;;;;;;5010227;28;20443;-91
2023/09/16 11:58:55;;;;;;;3.50;3.30;;;28.90;71.20;;;;;;5010637;28;20193;-91
2023/09/16 12:01:40;;;;;;;3.20;3.00;;;28.90;71.40;;;;;;5025745;28;20448;-91
2023/09/16 12:04:08;;;;;;;3.47;3.17;;;29.30;70.70;;;;;;5008582;28;21062;-91
2023/09/16 12:06:35;;;;;;;3.90;3.00;;;29.30;69.90;;;;;;5007986;28;20845;-91
2023/09/16 12:09:03;;;;;;;3.37;3.07;;;29.30;68.10;;;;;;5006660;28;20451;-91
2023/09/16 12:11:29;;;;;;;3.83;3.53;;;29.20;69.10;;;;;;5005581;28;20545;-91
2023/09/16 12:13:55;;;;;;;3.30;3.00;;;29.20;68.90;;;;;;5008552;28;20445;-91
2023/09/16 12:16:23;;;;;;;3.47;2.97;;;29.10;69.00;;;;;;5007713;28;20549;-91
2023/09/16 12:18:49;;;;;;;3.40;3.10;;;29.00;68.60;;;;;;5005151;28;20253;-91
2023/09/16 12:23:52;;;;;;;3.10;2.53;;;28.80;68.10;;;;;;5019059;22;20237;-91
2023/09/16 12:26:18;;;;;;;3.30;3.10;;;28.90;68.10;;;;;;5013166;28;20529;-90
2023/09/16 12:28:44;;;;;;;3.10;2.90;;;29.20;68.50;;;;;;5013354;28;20613;-91
2023/09/16 12:31:11;;;;;;;3.63;3.33;;;29.10;69.30;;;;;;5016328;28;20489;-87
2023/09/16 12:33:40;;;;;;;3.67;3.33;;;28.80;69.60;;;;;;5005986;28;20201;-89
2023/09/16 12:36:06;;;;;;;3.70;3.40;;;29.20;68.80;;;;;;5025957;28;20524;-88